sensor_id;sensor_type;location;lat;lon;timestamp;pressure;altitude;pressure_sealevel;temperature;humidity
69855;BME280;57146;48.140;16.304;2022-07-23T00:01:16;99223.38;;;25.78;52.89
69855;BME280;57146;48.140;16.304;2022-07-23T00:03:53;99216.47;;;25.77;53.30
69855;BME280;57146;48.140;16.304;2022-07-23T00:06:21;99221.16;;;25.73;53.85
69855;BME280;57146;48.140;16.304;2022-07-23T00:08:48;99222.00;;;25.66;53.71
69855;BME280;57146;48.140;16.304;2022-07-23T00:11:15;99232.78;;;25.66;54.14
69855;BME280;57146;48.140;16.304;2022-07-23T00:13:42;99215.47;;;25.64;53.50
69855;BME280;57146;48.140;16.304;2022-07-23T00:16:09;99217.81;;;25.62;53.48
69855;BME280;57146;48.140;16.304;2022-07-23T00:18:37;99212.50;;;25.54;53.43
69855;BME280;57146;48.140;16.304;2022-07-23T00:21:04;99211.38;;;25.52;53.19
69855;BME280;57146;48.140;16.304;2022-07-23T00:23:31;99221.00;;;25.49;53.45
69855;BME280;57146;48.140;16.304;2022-07-23T00:25:58;99219.84;;;25.50;52.61
69855;BME280;57146;48.140;16.304;2022-07-23T00:28:25;99216.72;;;25.55;52.46
69855;BME280;57146;48.140;16.304;2022-07-23T00:30:52;99224.81;;;25.55;52.39
69855;BME280;57146;48.140;16.304;2022-07-23T00:33:19;99226.78;;;25.51;52.50
69855;BME280;57146;48.140;16.304;2022-07-23T00:35:46;99231.47;;;25.44;52.78
69855;BME280;57146;48.140;16.304;2022-07-23T00:38:13;99235.69;;;25.45;52.43
69855;BME280;57146;48.140;16.304;2022-07-23T00:40:40;99236.13;;;25.40;52.62
69855;BME280;57146;48.140;16.304;2022-07-23T00:43:07;99230.31;;;25.45;52.52
69855;BME280;57146;48.140;16.304;2022-07-23T00:45:34;99243.31;;;25.12;52.89
69855;BME280;57146;48.140;16.304;2022-07-23T00:48:02;99242.09;;;25.20;52.57
69855;BME280;57146;48.140;16.304;2022-07-23T00:50:29;99237.91;;;25.16;52.73
69855;BME280;57146;48.140;16.304;2022-07-23T00:52:56;99244.06;;;25.13;52.74
69855;BME280;57146;48.140;16.304;2022-07-23T00:55:23;99244.38;;;25.22;52.20
69855;BME280;57146;48.140;16.304;2022-07-23T00:57:52;99234.34;;;25.26;52.99
69855;BME280;57146;48.140;16.304;2022-07-23T01:00:20;99228.56;;;25.24;52.74
69855;BME280;57146;48.140;16.304;2022-07-23T01:02:47;99226.25;;;25.26;52.64
69855;BME280;57146;48.140;16.304;2022-07-23T01:05:15;99230.47;;;25.27;52.79
69855;BME280;57146;48.140;16.304;2022-07-23T01:07:42;99227.78;;;25.27;52.79
69855;BME280;57146;48.140;16.304;2022-07-23T01:10:09;99233.22;;;25.23;52.94
69855;BME280;57146;48.140;16.304;2022-07-23T01:12:38;99230.81;;;25.29;52.40
69855;BME280;57146;48.140;16.304;2022-07-23T01:15:06;99235.88;;;25.27;51.98
69855;BME280;57146;48.140;16.304;2022-07-23T01:17:32;99232.38;;;25.30;51.67
69855;BME280;57146;48.140;16.304;2022-07-23T01:19:59;99231.66;;;25.26;52.49
69855;BME280;57146;48.140;16.304;2022-07-23T01:22:29;99246.28;;;25.21;52.05
69855;BME280;57146;48.140;16.304;2022-07-23T01:24:56;99251.78;;;25.11;52.24
69855;BME280;57146;48.140;16.304;2022-07-23T01:27:25;99257.22;;;25.00;52.42
69855;BME280;57146;48.140;16.304;2022-07-23T01:30:00;99287.59;;;25.00;52.35
69855;BME280;57146;48.140;16.304;2022-07-23T01:32:27;99292.63;;;24.98;52.44
69855;BME280;57146;48.140;16.304;2022-07-23T01:34:54;99295.31;;;24.98;52.93
69855;BME280;57146;48.140;16.304;2022-07-23T01:37:21;99268.03;;;24.96;53.48
69855;BME280;57146;48.140;16.304;2022-07-23T01:39:48;99265.34;;;24.93;54.11
69855;BME280;57146;48.140;16.304;2022-07-23T01:42:15;99266.09;;;24.97;54.72
69855;BME280;57146;48.140;16.304;2022-07-23T01:44:45;99261.06;;;25.02;54.79
69855;BME280;57146;48.140;16.304;2022-07-23T01:47:19;99252.19;;;25.05;55.02
69855;BME280;57146;48.140;16.304;2022-07-23T01:49:50;99247.94;;;25.04;55.17
69855;BME280;57146;48.140;16.304;2022-07-23T01:52:20;99247.16;;;25.07;55.46
69855;BME280;57146;48.140;16.304;2022-07-23T01:54:49;99230.22;;;25.11;55.54
69855;BME280;57146;48.140;16.304;2022-07-23T01:57:16;99227.16;;;25.12;55.74
69855;BME280;57146;48.140;16.304;2022-07-23T01:59:44;99227.16;;;25.12;56.12
69855;BME280;57146;48.140;16.304;2022-07-23T02:02:11;99214.00;;;25.18;55.80
69855;BME280;57146;48.140;16.304;2022-07-23T02:04:38;99202.44;;;25.21;56.15
69855;BME280;57146;48.140;16.304;2022-07-23T02:07:05;99190.88;;;25.24;56.16
69855;BME280;57146;48.140;16.304;2022-07-23T02:09:33;99186.63;;;25.26;56.25
69855;BME280;57146;48.140;16.304;2022-07-23T02:12:00;99183.13;;;25.29;56.19
69855;BME280;57146;48.140;16.304;2022-07-23T02:14:27;99170.03;;;25.28;56.49
69855;BME280;57146;48.140;16.304;2022-07-23T02:16:54;99169.97;;;25.35;56.06
69855;BME280;57146;48.140;16.304;2022-07-23T02:19:21;99174.97;;;25.37;56.15
69855;BME280;57146;48.140;16.304;2022-07-23T02:21:48;99168.72;;;25.43;56.04
69855;BME280;57146;48.140;16.304;2022-07-23T02:24:18;99171.06;;;25.41;56.13
69855;BME280;57146;48.140;16.304;2022-07-23T02:26:45;99180.59;;;25.49;55.99
69855;BME280;57146;48.140;16.304;2022-07-23T02:29:14;99176.25;;;25.59;55.95
69855;BME280;57146;48.140;16.304;2022-07-23T02:31:41;99178.63;;;25.53;56.06
69855;BME280;57146;48.140;16.304;2022-07-23T02:34:08;99162.09;;;25.51;56.55
69855;BME280;57146;48.140;16.304;2022-07-23T02:36:34;99158.66;;;25.51;56.84
69855;BME280;57146;48.140;16.304;2022-07-23T02:39:03;99166.31;;;25.52;56.42
69855;BME280;57146;48.140;16.304;2022-07-23T02:41:32;99152.88;;;25.49;57.08
69855;BME280;57146;48.140;16.304;2022-07-23T02:43:59;99130.94;;;25.47;57.07
69855;BME280;57146;48.140;16.304;2022-07-23T02:46:26;99125.97;;;25.45;57.04
69855;BME280;57146;48.140;16.304;2022-07-23T02:48:55;99137.84;;;25.51;56.93
69855;BME280;57146;48.140;16.304;2022-07-23T02:51:22;99153.59;;;25.53;56.76
69855;BME280;57146;48.140;16.304;2022-07-23T02:53:55;99134.44;;;25.47;57.34
69855;BME280;57146;48.140;16.304;2022-07-23T02:56:21;99127.16;;;25.44;57.31
69855;BME280;57146;48.140;16.304;2022-07-23T02:58:48;99151.03;;;25.42;57.11
69855;BME280;57146;48.140;16.304;2022-07-23T03:01:15;99167.19;;;25.42;57.58
69855;BME280;57146;48.140;16.304;2022-07-23T03:03:46;99150.22;;;25.45;57.55
69855;BME280;57146;48.140;16.304;2022-07-23T03:06:13;99151.75;;;25.46;57.10
69855;BME280;57146;48.140;16.304;2022-07-23T03:08:40;99158.69;;;25.47;57.39
69855;BME280;57146;48.140;16.304;2022-07-23T03:11:07;99162.91;;;25.48;57.65
69855;BME280;57146;48.140;16.304;2022-07-23T03:13:34;99158.38;;;25.38;57.27
69855;BME280;57146;48.140;16.304;2022-07-23T03:16:01;99159.19;;;25.35;57.22
69855;BME280;57146;48.140;16.304;2022-07-23T03:18:29;99164.88;;;25.44;57.71
69855;BME280;57146;48.140;16.304;2022-07-23T03:20:56;99158.31;;;25.45;57.24
69855;BME280;57146;48.140;16.304;2022-07-23T03:23:23;99159.84;;;25.46;57.20
69855;BME280;57146;48.140;16.304;2022-07-23T03:25:51;99160.59;;;25.47;57.13
69855;BME280;57146;48.140;16.304;2022-07-23T03:28:21;99171.69;;;25.52;56.91
69855;BME280;57146;48.140;16.304;2022-07-23T03:30:48;99183.69;;;25.48;57.02
69855;BME280;57146;48.140;16.304;2022-07-23T03:33:16;99178.66;;;25.50;57.14
69855;BME280;57146;48.140;16.304;2022-07-23T03:35:44;99179.88;;;25.45;57.55
69855;BME280;57146;48.140;16.304;2022-07-23T03:38:25;99182.16;;;25.47;57.07
69855;BME280;57146;48.140;16.304;2022-07-23T03:40:53;99206.13;;;25.38;57.58
69855;BME280;57146;48.140;16.304;2022-07-23T03:43:20;99198.94;;;25.24;58.01
69855;BME280;57146;48.140;16.304;2022-07-23T03:45:47;99201.56;;;25.31;57.99
69855;BME280;57146;48.140;16.304;2022-07-23T03:48:14;99202.28;;;25.35;57.31
69855;BME280;57146;48.140;16.304;2022-07-23T03:50:43;99205.00;;;25.35;57.22
69855;BME280;57146;48.140;16.304;2022-07-23T03:53:11;99209.28;;;25.29;57.78
69855;BME280;57146;48.140;16.304;2022-07-23T03:55:37;99211.63;;;25.27;57.74
69855;BME280;57146;48.140;16.304;2022-07-23T03:58:04;99209.31;;;25.25;57.82
69855;BME280;57146;48.140;16.304;2022-07-23T04:00:31;99212.09;;;25.15;58.17
69855;BME280;57146;48.140;16.304;2022-07-23T04:02:58;99222.47;;;25.20;57.91
69855;BME280;57146;48.140;16.304;2022-07-23T04:05:26;99216.31;;;25.19;57.90
69855;BME280;57146;48.140;16.304;2022-07-23T04:08:03;99227.84;;;25.20;58.52
69855;BME280;57146;48.140;16.304;2022-07-23T04:10:31;99229.47;;;25.06;58.97
69855;BME280;57146;48.140;16.304;2022-07-23T04:12:58;99239.84;;;25.15;58.47
69855;BME280;57146;48.140;16.304;2022-07-23T04:15:25;99247.09;;;25.18;58.59
69855;BME280;57146;48.140;16.304;2022-07-23T04:17:52;99245.16;;;25.22;58.85
69855;BME280;57146;48.140;16.304;2022-07-23T04:20:20;99249.00;;;25.21;58.96
69855;BME280;57146;48.140;16.304;2022-07-23T04:22:54;99247.47;;;25.20;58.18
69855;BME280;57146;48.140;16.304;2022-07-23T04:25:21;99246.75;;;25.16;59.71
69855;BME280;57146;48.140;16.304;2022-07-23T04:27:49;99247.09;;;25.18;59.32
69855;BME280;57146;48.140;16.304;2022-07-23T04:30:16;99241.31;;;25.20;59.09
69855;BME280;57146;48.140;16.304;2022-07-23T04:32:43;99245.94;;;25.19;59.39
69855;BME280;57146;48.140;16.304;2022-07-23T04:35:19;99233.69;;;25.11;59.13
69855;BME280;57146;48.140;16.304;2022-07-23T04:37:47;99242.13;;;25.17;59.90
69855;BME280;57146;48.140;16.304;2022-07-23T04:40:16;99254.41;;;25.18;59.61
69855;BME280;57146;48.140;16.304;2022-07-23T04:42:43;99250.53;;;25.22;60.15
69855;BME280;57146;48.140;16.304;2022-07-23T04:45:10;99252.81;;;25.24;59.72
69855;BME280;57146;48.140;16.304;2022-07-23T04:47:41;99246.25;;;25.25;59.39
69855;BME280;57146;48.140;16.304;2022-07-23T04:50:08;99241.63;;;25.25;59.28
69855;BME280;57146;48.140;16.304;2022-07-23T04:52:39;99236.31;;;25.18;57.84
69855;BME280;57146;48.140;16.304;2022-07-23T04:55:06;99242.84;;;25.21;57.62
69855;BME280;57146;48.140;16.304;2022-07-23T04:57:34;99236.22;;;25.29;56.60
69855;BME280;57146;48.140;16.304;2022-07-23T05:00:01;99241.63;;;25.25;56.38
69855;BME280;57146;48.140;16.304;2022-07-23T05:02:29;99234.38;;;25.22;56.30
69855;BME280;57146;48.140;16.304;2022-07-23T05:04:55;99237.41;;;25.24;55.82
69855;BME280;57146;48.140;16.304;2022-07-23T05:07:22;99235.09;;;25.26;55.34
69855;BME280;57146;48.140;16.304;2022-07-23T05:09:50;99237.84;;;25.23;55.39
69855;BME280;57146;48.140;16.304;2022-07-23T05:12:17;99239.81;;;25.19;55.65
69855;BME280;57146;48.140;16.304;2022-07-23T05:14:44;99237.88;;;25.19;55.45
69855;BME280;57146;48.140;16.304;2022-07-23T05:17:11;99240.16;;;25.21;55.12
69855;BME280;57146;48.140;16.304;2022-07-23T05:19:39;99240.81;;;25.32;54.10
69855;BME280;57146;48.140;16.304;2022-07-23T05:22:05;99239.69;;;25.29;53.20
69855;BME280;57146;48.140;16.304;2022-07-23T05:24:32;99246.19;;;25.32;53.57
69855;BME280;57146;48.140;16.304;2022-07-23T05:27:00;99250.41;;;25.37;53.59
69855;BME280;57146;48.140;16.304;2022-07-23T05:29:27;99254.94;;;25.43;53.42
69855;BME280;57146;48.140;16.304;2022-07-23T05:31:54;99251.03;;;25.51;53.35
69855;BME280;57146;48.140;16.304;2022-07-23T05:34:22;99248.25;;;25.59;53.22
69855;BME280;57146;48.140;16.304;2022-07-23T05:36:49;99245.06;;;25.67;52.49
69855;BME280;57146;48.140;16.304;2022-07-23T05:39:16;99254.22;;;25.81;52.47
69855;BME280;57146;48.140;16.304;2022-07-23T05:41:43;99257.97;;;25.90;51.47
69855;BME280;57146;48.140;16.304;2022-07-23T05:44:10;99253.53;;;26.03;50.94
69855;BME280;57146;48.140;16.304;2022-07-23T05:46:39;99249.50;;;26.19;50.44
69855;BME280;57146;48.140;16.304;2022-07-23T05:49:09;99253.16;;;26.32;50.11
69855;BME280;57146;48.140;16.304;2022-07-23T05:52:05;99252.25;;;26.42;49.62
69855;BME280;57146;48.140;16.304;2022-07-23T05:54:50;99251.84;;;26.47;49.40
69855;BME280;57146;48.140;16.304;2022-07-23T05:57:17;99248.34;;;26.50;49.42
69855;BME280;57146;48.140;16.304;2022-07-23T05:59:50;99251.94;;;26.67;49.15
69855;BME280;57146;48.140;16.304;2022-07-23T06:02:17;99266.44;;;26.77;49.25
69855;BME280;57146;48.140;16.304;2022-07-23T06:04:44;99257.28;;;26.71;49.38
69855;BME280;57146;48.140;16.304;2022-07-23T06:07:20;99263.09;;;26.69;49.70
69855;BME280;57146;48.140;16.304;2022-07-23T06:09:48;99259.97;;;26.71;49.96
69855;BME280;57146;48.140;16.304;2022-07-23T06:12:16;99257.69;;;26.69;50.33
69855;BME280;57146;48.140;16.304;2022-07-23T06:14:44;99252.34;;;26.66;50.70
69855;BME280;57146;48.140;16.304;2022-07-23T06:17:11;99255.50;;;26.61;50.92
69855;BME280;57146;48.140;16.304;2022-07-23T06:19:38;99263.53;;;26.64;51.26
69855;BME280;57146;48.140;16.304;2022-07-23T06:22:04;99269.81;;;26.85;51.11
69855;BME280;57146;48.140;16.304;2022-07-23T06:24:31;99272.97;;;26.80;51.20
69855;BME280;57146;48.140;16.304;2022-07-23T06:26:58;99274.38;;;26.88;50.95
69855;BME280;57146;48.140;16.304;2022-07-23T06:29:25;99275.84;;;26.92;50.52
69855;BME280;57146;48.140;16.304;2022-07-23T06:31:52;99274.75;;;26.90;50.15
69855;BME280;57146;48.140;16.304;2022-07-23T06:34:19;99273.91;;;26.93;49.46
69855;BME280;57146;48.140;16.304;2022-07-23T06:36:45;99272.66;;;27.01;49.48
69855;BME280;57146;48.140;16.304;2022-07-23T06:39:12;99270.22;;;27.07;49.08
69855;BME280;57146;48.140;16.304;2022-07-23T06:41:45;99266.09;;;27.26;48.46
69855;BME280;57146;48.140;16.304;2022-07-23T06:44:17;99257.38;;;27.38;48.11
69855;BME280;57146;48.140;16.304;2022-07-23T06:46:47;99261.53;;;27.42;47.32
69855;BME280;57146;48.140;16.304;2022-07-23T06:49:14;99260.38;;;27.63;46.94
69855;BME280;57146;48.140;16.304;2022-07-23T06:51:41;99266.91;;;27.66;46.25
69855;BME280;57146;48.140;16.304;2022-07-23T06:54:08;99264.50;;;27.72;46.23
69855;BME280;57146;48.140;16.304;2022-07-23T06:56:35;99263.31;;;27.73;45.14
69855;BME280;57146;48.140;16.304;2022-07-23T06:59:02;99264.91;;;27.70;45.73
69855;BME280;57146;48.140;16.304;2022-07-23T07:01:30;99258.19;;;27.78;43.81
69855;BME280;57146;48.140;16.304;2022-07-23T07:03:57;99258.91;;;27.82;44.27
69855;BME280;57146;48.140;16.304;2022-07-23T07:06:23;99254.53;;;27.88;43.94
69855;BME280;57146;48.140;16.304;2022-07-23T07:08:51;99254.94;;;27.87;42.86
69855;BME280;57146;48.140;16.304;2022-07-23T07:11:18;99262.94;;;27.94;43.13
69855;BME280;57146;48.140;16.304;2022-07-23T07:13:44;99268.59;;;28.00;42.99
69855;BME280;57146;48.140;16.304;2022-07-23T07:16:11;99269.59;;;27.89;43.03
69855;BME280;57146;48.140;16.304;2022-07-23T07:18:38;99270.06;;;28.04;43.02
69855;BME280;57146;48.140;16.304;2022-07-23T07:21:05;99273.72;;;28.14;42.80
69855;BME280;57146;48.140;16.304;2022-07-23T07:23:32;99282.53;;;27.98;42.70
69855;BME280;57146;48.140;16.304;2022-07-23T07:25:59;99276.31;;;28.01;43.11
69855;BME280;57146;48.140;16.304;2022-07-23T07:28:25;99278.09;;;27.88;43.36
69855;BME280;57146;48.140;16.304;2022-07-23T07:30:52;99270.41;;;27.86;43.22
69855;BME280;57146;48.140;16.304;2022-07-23T07:33:20;99270.97;;;27.98;42.75
69855;BME280;57146;48.140;16.304;2022-07-23T07:35:47;99279.13;;;28.14;42.69
69855;BME280;57146;48.140;16.304;2022-07-23T07:38:14;99275.03;;;28.26;42.10
69855;BME280;57146;48.140;16.304;2022-07-23T07:40:41;99280.44;;;28.26;41.68
69855;BME280;57146;48.140;16.304;2022-07-23T07:43:08;99281.19;;;28.26;41.33
69855;BME280;57146;48.140;16.304;2022-07-23T07:45:35;99278.41;;;28.30;41.44
69855;BME280;57146;48.140;16.304;2022-07-23T07:48:01;99285.97;;;28.38;41.86
69855;BME280;57146;48.140;16.304;2022-07-23T07:50:28;99292.03;;;28.26;41.37
69855;BME280;57146;48.140;16.304;2022-07-23T07:52:56;99292.38;;;28.28;41.50
69855;BME280;57146;48.140;16.304;2022-07-23T07:55:23;99293.06;;;28.32;41.47
69855;BME280;57146;48.140;16.304;2022-07-23T07:57:50;99286.97;;;28.28;41.27
69855;BME280;57146;48.140;16.304;2022-07-23T08:00:17;99284.50;;;27.98;41.78
69855;BME280;57146;48.140;16.304;2022-07-23T08:02:48;99286.63;;;28.06;41.96
69855;BME280;57146;48.140;16.304;2022-07-23T08:05:24;99289.91;;;27.98;42.35
69855;BME280;57146;48.140;16.304;2022-07-23T08:07:55;99285.53;;;28.04;42.11
69855;BME280;57146;48.140;16.304;2022-07-23T08:10:22;99282.69;;;28.11;42.23
69855;BME280;57146;48.140;16.304;2022-07-23T08:12:54;99287.94;;;28.18;41.96
69855;BME280;57146;48.140;16.304;2022-07-23T08:15:22;99281.13;;;28.30;41.88
69855;BME280;57146;48.140;16.304;2022-07-23T08:17:50;99284.31;;;28.45;41.87
69855;BME280;57146;48.140;16.304;2022-07-23T08:20:18;99283.84;;;28.50;41.45
69855;BME280;57146;48.140;16.304;2022-07-23T08:25:27;99283.31;;;28.55;41.41
69855;BME280;57146;48.140;16.304;2022-07-23T08:27:54;99276.81;;;28.69;41.27
69855;BME280;57146;48.140;16.304;2022-07-23T08:30:22;99274.63;;;28.80;41.55
69855;BME280;57146;48.140;16.304;2022-07-23T08:32:58;99281.22;;;28.95;40.95
69855;BME280;57146;48.140;16.304;2022-07-23T08:35:35;99279.13;;;29.03;40.26
69855;BME280;57146;48.140;16.304;2022-07-23T08:38:05;99275.91;;;29.08;40.87
69855;BME280;57146;48.140;16.304;2022-07-23T08:40:35;99270.16;;;29.06;40.43
69855;BME280;57146;48.140;16.304;2022-07-23T08:43:17;99270.81;;;29.10;40.05
69855;BME280;57146;48.140;16.304;2022-07-23T08:45:46;99271.13;;;28.96;40.35
69855;BME280;57146;48.140;16.304;2022-07-23T08:48:16;99269.41;;;29.05;39.85
69855;BME280;57146;48.140;16.304;2022-07-23T08:50:47;99265.25;;;29.01;40.04
69855;BME280;57146;48.140;16.304;2022-07-23T08:53:14;99273.53;;;29.10;39.83
69855;BME280;57146;48.140;16.304;2022-07-23T08:55:47;99274.06;;;29.21;40.53
69855;BME280;57146;48.140;16.304;2022-07-23T08:58:14;99271.66;;;29.23;40.31
69855;BME280;57146;48.140;16.304;2022-07-23T09:00:42;99269.41;;;29.51;39.79
69855;BME280;57146;48.140;16.304;2022-07-23T09:03:23;99265.59;;;29.65;38.84
69855;BME280;57146;48.140;16.304;2022-07-23T09:05:51;99274.63;;;29.74;38.56
69855;BME280;57146;48.140;16.304;2022-07-23T09:08:21;99272.28;;;29.89;38.28
69855;BME280;57146;48.140;16.304;2022-07-23T09:10:56;99267.06;;;29.95;36.97
69855;BME280;57146;48.140;16.304;2022-07-23T09:13:42;99279.00;;;29.97;37.20
69855;BME280;57146;48.140;16.304;2022-07-23T09:21:15;99272.56;;;30.20;37.22
69855;BME280;57146;48.140;16.304;2022-07-23T09:23:54;99268.78;;;30.18;36.65
69855;BME280;57146;48.140;16.304;2022-07-23T09:29:12;99262.38;;;30.24;36.68
69855;BME280;57146;48.140;16.304;2022-07-23T09:31:59;99261.09;;;30.42;36.52
69855;BME280;57146;48.140;16.304;2022-07-23T09:34:28;99257.28;;;30.39;36.95
69855;BME280;57146;48.140;16.304;2022-07-23T09:37:08;99250.53;;;30.44;35.95
69855;BME280;57146;48.140;16.304;2022-07-23T09:39:36;99257.69;;;30.38;35.88
69855;BME280;57146;48.140;16.304;2022-07-23T09:42:32;99265.63;;;30.32;35.23
69855;BME280;57146;48.140;16.304;2022-07-23T09:44:59;99256.94;;;30.37;35.33
69855;BME280;57146;48.140;16.304;2022-07-23T09:47:29;99251.72;;;30.56;35.59
69855;BME280;57146;48.140;16.304;2022-07-23T09:52:33;99249.00;;;30.56;37.27
69855;BME280;57146;48.140;16.304;2022-07-23T09:55:05;99247.81;;;30.44;37.30
69855;BME280;57146;48.140;16.304;2022-07-23T09:57:33;99251.41;;;30.53;37.24
69855;BME280;57146;48.140;16.304;2022-07-23T10:00:07;99257.59;;;30.54;36.45
69855;BME280;57146;48.140;16.304;2022-07-23T10:02:35;99249.00;;;30.56;35.71
69855;BME280;57146;48.140;16.304;2022-07-23T10:05:21;99238.88;;;30.69;35.44
69855;BME280;57146;48.140;16.304;2022-07-23T10:07:57;99248.88;;;30.59;34.77
69855;BME280;57146;48.140;16.304;2022-07-23T10:10:47;99240.66;;;30.75;35.53
69855;BME280;57146;48.140;16.304;2022-07-23T10:13:21;99225.38;;;30.91;35.30
69855;BME280;57146;48.140;16.304;2022-07-23T10:15:50;99227.16;;;30.85;35.55
69855;BME280;57146;48.140;16.304;2022-07-23T10:18:17;99229.47;;;31.08;34.23
69855;BME280;57146;48.140;16.304;2022-07-23T10:20:47;99232.16;;;31.21;34.44
69855;BME280;57146;48.140;16.304;2022-07-23T10:26:20;99228.22;;;31.22;35.29
69855;BME280;57146;48.140;16.304;2022-07-23T10:32:27;99226.38;;;31.32;35.11
69855;BME280;57146;48.140;16.304;2022-07-23T10:35:23;99230.00;;;31.16;35.35
69855;BME280;57146;48.140;16.304;2022-07-23T10:38:11;99229.16;;;31.06;36.10
69855;BME280;57146;48.140;16.304;2022-07-23T10:43:20;99225.78;;;31.02;36.52
69855;BME280;57146;48.140;16.304;2022-07-23T10:45:48;99230.09;;;31.12;36.61
69855;BME280;57146;48.140;16.304;2022-07-23T10:48:17;99226.25;;;31.00;36.58
69855;BME280;57146;48.140;16.304;2022-07-23T10:51:11;99221.16;;;30.90;36.58
69855;BME280;57146;48.140;16.304;2022-07-23T10:59:22;99218.00;;;31.26;36.09
69855;BME280;57146;48.140;16.304;2022-07-23T11:01:50;99220.53;;;31.20;36.15
69855;BME280;57146;48.140;16.304;2022-07-23T11:04:18;99216.84;;;31.14;35.69
69855;BME280;57146;48.140;16.304;2022-07-23T11:09:42;99219.56;;;31.14;35.15
69855;BME280;57146;48.140;16.304;2022-07-23T11:15:04;99218.41;;;31.03;35.71
69855;BME280;57146;48.140;16.304;2022-07-23T11:17:36;99207.34;;;30.97;36.25
69855;BME280;57146;48.140;16.304;2022-07-23T11:22:39;99203.03;;;31.09;36.23
69855;BME280;57146;48.140;16.304;2022-07-23T11:25:06;99205.41;;;31.19;36.44
69855;BME280;57146;48.140;16.304;2022-07-23T11:27:41;99191.03;;;31.32;36.14
69855;BME280;57146;48.140;16.304;2022-07-23T11:30:11;99191.47;;;31.52;35.76
69855;BME280;57146;48.140;16.304;2022-07-23T11:35:44;99189.81;;;31.33;36.09
69855;BME280;57146;48.140;16.304;2022-07-23T11:38:21;99182.84;;;31.54;36.07
69855;BME280;57146;48.140;16.304;2022-07-23T11:40:51;99177.03;;;31.64;35.77
69855;BME280;57146;48.140;16.304;2022-07-23T11:43:19;99186.41;;;31.63;36.16
69855;BME280;57146;48.140;16.304;2022-07-23T11:45:52;99180.75;;;31.58;36.35
69855;BME280;57146;48.140;16.304;2022-07-23T11:48:26;99190.19;;;31.44;37.04
69855;BME280;57146;48.140;16.304;2022-07-23T11:50:55;99188.31;;;31.32;37.07
69855;BME280;57146;48.140;16.304;2022-07-23T11:53:30;99191.13;;;31.28;37.50
69855;BME280;57146;48.140;16.304;2022-07-23T11:56:05;99179.44;;;31.40;37.09
69855;BME280;57146;48.140;16.304;2022-07-23T11:58:32;99180.06;;;31.66;36.90
69855;BME280;57146;48.140;16.304;2022-07-23T12:00:59;99194.56;;;31.63;36.85
69855;BME280;57146;48.140;16.304;2022-07-23T12:03:27;99185.22;;;31.42;36.54
69855;BME280;57146;48.140;16.304;2022-07-23T12:05:59;99185.84;;;31.46;36.79
69855;BME280;57146;48.140;16.304;2022-07-23T12:08:27;99176.97;;;31.55;36.04
69855;BME280;57146;48.140;16.304;2022-07-23T12:10:54;99181.28;;;31.43;36.64
69855;BME280;57146;48.140;16.304;2022-07-23T12:13:21;99191.44;;;31.30;36.92
69855;BME280;57146;48.140;16.304;2022-07-23T12:15:51;99180.69;;;31.27;36.77
69855;BME280;57146;48.140;16.304;2022-07-23T12:18:22;99184.47;;;31.29;36.50
69855;BME280;57146;48.140;16.304;2022-07-23T12:20:56;99182.41;;;30.98;36.88
69855;BME280;57146;48.140;16.304;2022-07-23T12:23:25;99181.69;;;31.20;36.55
69855;BME280;57146;48.140;16.304;2022-07-23T12:25:53;99176.44;;;31.04;35.98
69855;BME280;57146;48.140;16.304;2022-07-23T12:28:31;99174.75;;;30.84;36.29
69855;BME280;57146;48.140;16.304;2022-07-23T12:31:00;99181.63;;;30.76;36.39
69855;BME280;57146;48.140;16.304;2022-07-23T12:33:35;99180.28;;;30.93;36.46
69855;BME280;57146;48.140;16.304;2022-07-23T12:36:08;99186.06;;;30.83;35.99
69855;BME280;57146;48.140;16.304;2022-07-23T12:38:41;99178.50;;;30.77;36.29
69855;BME280;57146;48.140;16.304;2022-07-23T12:41:08;99187.19;;;30.60;36.19
69855;BME280;57146;48.140;16.304;2022-07-23T12:43:40;99190.03;;;30.56;36.33
69855;BME280;57146;48.140;16.304;2022-07-23T12:46:08;99201.31;;;30.54;36.34
69855;BME280;57146;48.140;16.304;2022-07-23T12:48:50;99205.13;;;30.44;35.91
69855;BME280;57146;48.140;16.304;2022-07-23T12:51:20;99211.66;;;30.47;35.54
69855;BME280;57146;48.140;16.304;2022-07-23T12:53:53;99216.44;;;30.43;35.02
69855;BME280;57146;48.140;16.304;2022-07-23T12:59:10;99235.97;;;30.25;32.99
69855;BME280;57146;48.140;16.304;2022-07-23T13:01:41;99238.06;;;30.21;32.59
69855;BME280;57146;48.140;16.304;2022-07-23T13:04:15;99238.06;;;30.21;32.47
69855;BME280;57146;48.140;16.304;2022-07-23T13:07:02;99241.53;;;30.21;33.24
69855;BME280;57146;48.140;16.304;2022-07-23T13:09:32;99240.00;;;30.33;32.63
69855;BME280;57146;48.140;16.304;2022-07-23T13:12:07;99240.53;;;30.41;32.14
69855;BME280;57146;48.140;16.304;2022-07-23T13:14:34;99232.91;;;30.48;32.01
69855;BME280;57146;48.140;16.304;2022-07-23T13:17:01;99241.28;;;30.54;32.05
69855;BME280;57146;48.140;16.304;2022-07-23T13:19:28;99246.28;;;30.68;30.94
69855;BME280;57146;48.140;16.304;2022-07-23T13:21:55;99237.06;;;30.79;31.10
69855;BME280;57146;48.140;16.304;2022-07-23T13:24:21;99244.44;;;30.78;31.54
69855;BME280;57146;48.140;16.304;2022-07-23T13:26:48;99248.56;;;30.83;31.14
69855;BME280;57146;48.140;16.304;2022-07-23T13:29:15;99234.00;;;30.76;31.03
69855;BME280;57146;48.140;16.304;2022-07-23T13:31:45;99249.22;;;30.74;31.33
69855;BME280;57146;48.140;16.304;2022-07-23T13:34:13;99235.19;;;30.88;30.92
69855;BME280;57146;48.140;16.304;2022-07-23T13:36:40;99242.50;;;30.79;30.72
69855;BME280;57146;48.140;16.304;2022-07-23T13:39:07;99240.28;;;30.73;30.95
69855;BME280;57146;48.140;16.304;2022-07-23T13:41:37;99237.03;;;30.66;31.20
69855;BME280;57146;48.140;16.304;2022-07-23T13:44:04;99239.00;;;30.65;30.83